リーブルヴィル の空港の天気 - METARとTAF

リーブルヴィル国際空港 ( FOOL / LBV ) - ガボン リーブルヴィル
飛行場実況気象(Metar)
観測時間04/21 18:00 WAT (04/21 17:00 UTC)
風向・風速南 6m/s
視程8000m
天気現象
全天の4割程度の雲 雲底高度 370m
少しの雲 雲底高度 610m
気温27℃
湿度79%
気圧1007hPa
METARFOOL 211700Z 17012KT 8000 TS SCT012 FEW020CB 27/23 Q1007 BECMG NOSIG
過去の天気等 Google飛行場航空写真 Wunderground天気予報

過去48時間のMETAR

飛行場予報(TAF)
発表時間: 4/21 12:00 WAT (4/21 11:00 UTC)
予報対象時間: 21日13時 WAT ~ 22日19時 WAT
風向・風速南 5m/s
視程10km以上
全天の4割程度の雲 雲底高度 370m
少しの積乱雲 雲底高度 610m
21日15時 WAT ~ 21日22時 WAT に 確率 30% で一時的に
天気現象
22日1時 WAT ~ 22日5時 WAT に 確率 30% で一時的に
視程4000m
天気現象雷雨
全天の8割程度の雲 雲底高度 240m
少しの積乱雲 雲底高度 490m
全天を覆う雲 雲底高度 790m
TAF COR FOOL 211100Z 2112/2218 17009KT 9999 SCT012 FEW020CB
PROB30 TEMPO 2114/2121 TS
PROB30 TEMPO 2200/2204 4000 TSRA BKN008 FEW016CB OVC026